< < Back
Terminal Aerodrome Forecast


Current Version              Previous Versions:   1  2  3  4  5  6  7  8  9  

Terminal Aerodrome Forecast

272
FTUS42 KGSP 300721 AAA
TAFHKY
TAF AMD
KHKY 300721Z 3007/3106 35003KT P6SM VCSH FEW030 BKN070 BKN120
     FM301400 02004KT P6SM SCT080
     FM301900 02006KT P6SM BKN060 PROB30 3019/3101 4SM -TSRA
      OVC040CB
     FM310300 VRB02KT P6SM BKN060=

Latest METAR

459
SAUS70 KWBC 310656
MTRHKY
METAR KHKY 310653Z AUTO 29003KT 10SM SCT055 19/18 A2997 RMK AO2 SLP125
T01890183


USA.gov is the U.S. government's official web portal to all federal, state and local government web resources and services.